Kythira I — D5JG3 — position and weather

sailwx.info

Track history (hours):
 
Tides and Currents Weather Stations Pressure Air Temp Water Temp Dewpoint Dewpoint Depression Visibility Wind Speed Wind Dir Waves Ship Positions

Kythira I

Last reported at 2018-Jan-23 07:07 UTC. Time now 2018-Feb-21 07:27 UTC.
Position N 01°17' E 103°21'.
Warning: this ship's position is 29 days out of date.

Length 229 m; draft 14.8 m.

Type: Ship. MMSI: 636017090.

Date/timePositionNaut miles runAvg speedWind from/ knotsBaromVisibWave heightAir tempDewpointWater temp
2018-Jan-23 07:07N 01°17' E 103°21'110.6
2018-Jan-23 06:59N 01°17' E 103°22'510.4
2018-Jan-23 06:29N 01°14' E 103°26'510.9
2018-Jan-23 06:00N 01°12' E 103°31'611.2
2018-Jan-23 05:30N 01°11' E 103°37'611.2
2018-Jan-23 05:01N 01°10' E 103°42'5 9.6
2018-Jan-23 04:30N 01°10' E 103°47'612.1
2018-Jan-23 03:59N 01°12' E 103°52'611.7
2018-Jan-23 03:30N 01°14' E 103°58'3 6.8
2018-Jan-23 03:00N 01°17' E 103°60'1 1.8
2018-Jan-23 02:29N 01°17' E 103°59'0 0.0
2018-Jan-23 01:53N 01°17' E 103°59'0 0.0
2018-Jan-23 01:23N 01°17' E 103°59'0 0.0
2018-Jan-23 00:59N 01°17' E 103°59'0 0.0
2018-Jan-23 00:26N 01°17' E 103°59'0 0.0
2018-Jan-22 22:53N 01°17' E 103°59'0 0.0
2018-Jan-22 22:20N 01°17' E 103°59'0 0.1
2018-Jan-22 21:50N 01°17' E 103°59'0 0.0
2018-Jan-22 21:20N 01°17' E 103°59'0 0.0
2018-Jan-22 20:53N 01°17' E 103°59'0 0.0
2018-Jan-22 20:29N 01°17' E 103°59'0 0.0
2018-Jan-22 19:50N 01°17' E 103°59'0 0.0
2018-Jan-22 18:56N 01°17' E 103°59'0 0.0
2018-Jan-22 18:29N 01°17' E 103°59'0 0.0
2018-Jan-22 17:59N 01°17' E 103°59'0 0.0
2018-Jan-22 17:29N 01°17' E 103°59'0 0.0
2018-Jan-22 16:56N 01°17' E 103°59'0 0.2
2018-Jan-22 16:29N 01°17' E 103°59'1 2.6
2018-Jan-22 15:59N 01°16' E 103°58'1 1.2
2018-Jan-22 15:29N 01°16' E 103°59'3 6.0
2018-Jan-22 14:58N 01°16' E 104°02'2010.0
2018-Jan-22 12:57N 01°21' E 104°22'  
Track history (hours):
 
Tides and Currents Weather Stations Pressure Air Temp Water Temp Dewpoint Dewpoint Depression Visibility Wind Speed Wind Dir Waves Ship Positions

Kythira I

Last reported at 2018-Jan-23 07:07 UTC. Time now 2018-Feb-21 07:27 UTC.
Position N 01°17' E 103°21'.
Warning: this ship's position is 29 days out of date.

Length 229 m; draft 14.8 m.

Type: Ship. MMSI: 636017090.

Date/timePositionNaut miles runAvg speedWind from/ knotsBaromVisibWave heightAir tempDewpointWater temp
2018-Jan-23 07:07N 01°17' E 103°21'110.6
2018-Jan-23 06:59N 01°17' E 103°22'510.4
2018-Jan-23 06:29N 01°14' E 103°26'510.9
2018-Jan-23 06:00N 01°12' E 103°31'611.2
2018-Jan-23 05:30N 01°11' E 103°37'611.2
2018-Jan-23 05:01N 01°10' E 103°42'5 9.6
2018-Jan-23 04:30N 01°10' E 103°47'612.1
2018-Jan-23 03:59N 01°12' E 103°52'611.7
2018-Jan-23 03:30N 01°14' E 103°58'3 6.8
2018-Jan-23 03:00N 01°17' E 103°60'1 1.8
2018-Jan-23 02:29N 01°17' E 103°59'0 0.0
2018-Jan-23 01:53N 01°17' E 103°59'0 0.0
2018-Jan-23 01:23N 01°17' E 103°59'0 0.0
2018-Jan-23 00:59N 01°17' E 103°59'0 0.0
2018-Jan-23 00:26N 01°17' E 103°59'0 0.0
2018-Jan-22 22:53N 01°17' E 103°59'0 0.0
2018-Jan-22 22:20N 01°17' E 103°59'0 0.1
2018-Jan-22 21:50N 01°17' E 103°59'0 0.0
2018-Jan-22 21:20N 01°17' E 103°59'0 0.0
2018-Jan-22 20:53N 01°17' E 103°59'0 0.0
2018-Jan-22 20:29N 01°17' E 103°59'0 0.0
2018-Jan-22 19:50N 01°17' E 103°59'0 0.0
2018-Jan-22 18:56N 01°17' E 103°59'0 0.0
2018-Jan-22 18:29N 01°17' E 103°59'0 0.0
2018-Jan-22 17:59N 01°17' E 103°59'0 0.0
2018-Jan-22 17:29N 01°17' E 103°59'0 0.0
2018-Jan-22 16:56N 01°17' E 103°59'0 0.2
2018-Jan-22 16:29N 01°17' E 103°59'1 2.6
2018-Jan-22 15:59N 01°16' E 103°58'1 1.2
2018-Jan-22 15:29N 01°16' E 103°59'3 6.0
2018-Jan-22 14:58N 01°16' E 104°02'2010.0
2018-Jan-22 12:57N 01°21' E 104°22'  

Dump ship's entire track history